sensor_id;sensor_type;location;lat;lon;timestamp;P1;durP1;ratioP1;P2;durP2;ratioP2
13941;SDS011;7043;51.630;7.254;2022-11-21T00:00:02;24.97;;;19.70;;
13941;SDS011;7043;51.630;7.254;2022-11-21T00:02:28;26.27;;;20.50;;
13941;SDS011;7043;51.630;7.254;2022-11-21T00:04:54;26.50;;;20.40;;
13941;SDS011;7043;51.630;7.254;2022-11-21T00:07:20;25.00;;;20.17;;
13941;SDS011;7043;51.630;7.254;2022-11-21T00:09:46;27.37;;;21.13;;
13941;SDS011;7043;51.630;7.254;2022-11-21T00:12:12;26.47;;;21.43;;
13941;SDS011;7043;51.630;7.254;2022-11-21T00:14:38;23.80;;;19.87;;
13941;SDS011;7043;51.630;7.254;2022-11-21T00:17:04;23.27;;;19.50;;
13941;SDS011;7043;51.630;7.254;2022-11-21T00:19:29;23.87;;;19.90;;
13941;SDS011;7043;51.630;7.254;2022-11-21T00:21:55;24.20;;;19.90;;
13941;SDS011;7043;51.630;7.254;2022-11-21T00:24:21;24.47;;;19.30;;
13941;SDS011;7043;51.630;7.254;2022-11-21T00:26:47;22.40;;;18.50;;
13941;SDS011;7043;51.630;7.254;2022-11-21T00:29:13;24.37;;;18.63;;
13941;SDS011;7043;51.630;7.254;2022-11-21T00:31:39;22.87;;;18.37;;
13941;SDS011;7043;51.630;7.254;2022-11-21T00:34:05;20.83;;;17.23;;
13941;SDS011;7043;51.630;7.254;2022-11-21T00:36:31;21.97;;;18.40;;
13941;SDS011;7043;51.630;7.254;2022-11-21T00:38:57;21.50;;;17.73;;
13941;SDS011;7043;51.630;7.254;2022-11-21T00:41:23;22.30;;;17.80;;
13941;SDS011;7043;51.630;7.254;2022-11-21T00:43:49;20.90;;;17.93;;
13941;SDS011;7043;51.630;7.254;2022-11-21T00:46:15;25.33;;;18.17;;
13941;SDS011;7043;51.630;7.254;2022-11-21T00:48:41;22.73;;;18.17;;
13941;SDS011;7043;51.630;7.254;2022-11-21T00:51:07;21.13;;;17.67;;
13941;SDS011;7043;51.630;7.254;2022-11-21T00:53:33;22.73;;;18.70;;
13941;SDS011;7043;51.630;7.254;2022-11-21T00:55:59;22.30;;;17.40;;
13941;SDS011;7043;51.630;7.254;2022-11-21T00:58:25;25.40;;;19.07;;
13941;SDS011;7043;51.630;7.254;2022-11-21T01:00:51;26.13;;;20.17;;
13941;SDS011;7043;51.630;7.254;2022-11-21T01:03:18;28.37;;;21.23;;
13941;SDS011;7043;51.630;7.254;2022-11-21T01:05:44;26.00;;;19.60;;
13941;SDS011;7043;51.630;7.254;2022-11-21T01:08:10;28.73;;;20.57;;
13941;SDS011;7043;51.630;7.254;2022-11-21T01:10:36;27.43;;;19.63;;
13941;SDS011;7043;51.630;7.254;2022-11-21T01:13:02;28.20;;;20.87;;
13941;SDS011;7043;51.630;7.254;2022-11-21T01:15:28;28.63;;;20.60;;
13941;SDS011;7043;51.630;7.254;2022-11-21T01:17:54;31.30;;;21.97;;
13941;SDS011;7043;51.630;7.254;2022-11-21T01:20:20;27.87;;;20.90;;
13941;SDS011;7043;51.630;7.254;2022-11-21T01:22:46;26.23;;;20.37;;
13941;SDS011;7043;51.630;7.254;2022-11-21T01:25:12;27.00;;;20.40;;
13941;SDS011;7043;51.630;7.254;2022-11-21T01:27:38;27.47;;;20.90;;
13941;SDS011;7043;51.630;7.254;2022-11-21T01:30:04;29.63;;;21.07;;
13941;SDS011;7043;51.630;7.254;2022-11-21T01:32:30;27.23;;;20.67;;
13941;SDS011;7043;51.630;7.254;2022-11-21T01:34:56;28.40;;;20.73;;
13941;SDS011;7043;51.630;7.254;2022-11-21T01:37:22;26.77;;;19.87;;
13941;SDS011;7043;51.630;7.254;2022-11-21T01:39:49;26.17;;;19.77;;
13941;SDS011;7043;51.630;7.254;2022-11-21T01:42:15;26.40;;;20.33;;
13941;SDS011;7043;51.630;7.254;2022-11-21T01:44:45;25.87;;;20.57;;
13941;SDS011;7043;51.630;7.254;2022-11-21T01:47:12;26.90;;;19.87;;
13941;SDS011;7043;51.630;7.254;2022-11-21T01:49:38;25.83;;;19.63;;
13941;SDS011;7043;51.630;7.254;2022-11-21T01:52:07;24.83;;;19.80;;
13941;SDS011;7043;51.630;7.254;2022-11-21T01:57:11;28.07;;;20.20;;
13941;SDS011;7043;51.630;7.254;2022-11-21T01:59:39;26.20;;;19.77;;
13941;SDS011;7043;51.630;7.254;2022-11-21T02:02:07;25.03;;;19.87;;
13941;SDS011;7043;51.630;7.254;2022-11-21T02:04:35;25.33;;;20.30;;
13941;SDS011;7043;51.630;7.254;2022-11-21T02:07:02;26.37;;;20.57;;
13941;SDS011;7043;51.630;7.254;2022-11-21T02:09:29;25.37;;;20.10;;
13941;SDS011;7043;51.630;7.254;2022-11-21T02:11:57;29.53;;;20.87;;
13941;SDS011;7043;51.630;7.254;2022-11-21T02:14:24;31.13;;;22.93;;
13941;SDS011;7043;51.630;7.254;2022-11-21T02:16:50;34.90;;;23.33;;
13941;SDS011;7043;51.630;7.254;2022-11-21T02:19:24;35.33;;;24.17;;
13941;SDS011;7043;51.630;7.254;2022-11-21T02:21:54;37.50;;;23.27;;
13941;SDS011;7043;51.630;7.254;2022-11-21T02:26:49;34.00;;;23.73;;
13941;SDS011;7043;51.630;7.254;2022-11-21T02:29:15;36.80;;;24.47;;
13941;SDS011;7043;51.630;7.254;2022-11-21T02:31:41;35.53;;;24.73;;
13941;SDS011;7043;51.630;7.254;2022-11-21T02:34:07;35.80;;;24.53;;
13941;SDS011;7043;51.630;7.254;2022-11-21T02:36:35;34.90;;;24.40;;
13941;SDS011;7043;51.630;7.254;2022-11-21T02:39:02;33.13;;;23.57;;
13941;SDS011;7043;51.630;7.254;2022-11-21T02:41:30;35.20;;;24.37;;
13941;SDS011;7043;51.630;7.254;2022-11-21T02:44:05;36.90;;;24.47;;
13941;SDS011;7043;51.630;7.254;2022-11-21T02:46:32;37.03;;;24.73;;
13941;SDS011;7043;51.630;7.254;2022-11-21T02:48:58;39.13;;;25.53;;
13941;SDS011;7043;51.630;7.254;2022-11-21T02:51:24;39.27;;;26.23;;
13941;SDS011;7043;51.630;7.254;2022-11-21T02:53:50;42.17;;;27.27;;
13941;SDS011;7043;51.630;7.254;2022-11-21T02:56:17;43.13;;;27.10;;
13941;SDS011;7043;51.630;7.254;2022-11-21T02:58:48;43.77;;;27.87;;
13941;SDS011;7043;51.630;7.254;2022-11-21T03:01:14;46.80;;;28.57;;
13941;SDS011;7043;51.630;7.254;2022-11-21T03:03:40;43.23;;;28.00;;
13941;SDS011;7043;51.630;7.254;2022-11-21T03:06:06;43.53;;;27.93;;
13941;SDS011;7043;51.630;7.254;2022-11-21T03:08:32;42.47;;;27.83;;
13941;SDS011;7043;51.630;7.254;2022-11-21T03:10:58;41.07;;;26.47;;
13941;SDS011;7043;51.630;7.254;2022-11-21T03:13:24;43.00;;;28.30;;
13941;SDS011;7043;51.630;7.254;2022-11-21T03:15:50;42.40;;;27.63;;
13941;SDS011;7043;51.630;7.254;2022-11-21T03:18:16;41.17;;;27.10;;
13941;SDS011;7043;51.630;7.254;2022-11-21T03:20:42;43.00;;;27.47;;
13941;SDS011;7043;51.630;7.254;2022-11-21T03:23:08;39.37;;;26.90;;
13941;SDS011;7043;51.630;7.254;2022-11-21T03:25:34;39.30;;;26.10;;
13941;SDS011;7043;51.630;7.254;2022-11-21T03:28:00;41.07;;;26.93;;
13941;SDS011;7043;51.630;7.254;2022-11-21T03:30:26;39.93;;;27.10;;
13941;SDS011;7043;51.630;7.254;2022-11-21T03:32:55;38.33;;;26.80;;
13941;SDS011;7043;51.630;7.254;2022-11-21T03:35:22;36.33;;;25.50;;
13941;SDS011;7043;51.630;7.254;2022-11-21T03:37:48;37.57;;;24.80;;
13941;SDS011;7043;51.630;7.254;2022-11-21T03:40:14;37.80;;;25.47;;
13941;SDS011;7043;51.630;7.254;2022-11-21T03:42:40;37.43;;;24.90;;
13941;SDS011;7043;51.630;7.254;2022-11-21T03:45:06;41.37;;;27.33;;
13941;SDS011;7043;51.630;7.254;2022-11-21T03:47:32;39.07;;;26.60;;
13941;SDS011;7043;51.630;7.254;2022-11-21T03:49:58;38.93;;;26.40;;
13941;SDS011;7043;51.630;7.254;2022-11-21T03:52:24;39.93;;;26.10;;
13941;SDS011;7043;51.630;7.254;2022-11-21T03:54:50;38.73;;;25.53;;
13941;SDS011;7043;51.630;7.254;2022-11-21T03:57:16;35.07;;;23.83;;
13941;SDS011;7043;51.630;7.254;2022-11-21T03:59:43;37.03;;;25.30;;
13941;SDS011;7043;51.630;7.254;2022-11-21T04:02:09;37.60;;;24.57;;
13941;SDS011;7043;51.630;7.254;2022-11-21T04:04:34;38.37;;;25.23;;
13941;SDS011;7043;51.630;7.254;2022-11-21T04:07:00;39.10;;;25.77;;
13941;SDS011;7043;51.630;7.254;2022-11-21T04:09:26;39.30;;;25.67;;
13941;SDS011;7043;51.630;7.254;2022-11-21T04:11:52;39.17;;;24.90;;
13941;SDS011;7043;51.630;7.254;2022-11-21T04:14:18;39.73;;;25.93;;
13941;SDS011;7043;51.630;7.254;2022-11-21T04:16:44;40.07;;;25.97;;
13941;SDS011;7043;51.630;7.254;2022-11-21T04:19:10;40.23;;;26.20;;
13941;SDS011;7043;51.630;7.254;2022-11-21T04:21:36;41.03;;;25.53;;
13941;SDS011;7043;51.630;7.254;2022-11-21T04:24:02;40.27;;;26.47;;
13941;SDS011;7043;51.630;7.254;2022-11-21T04:26:28;38.87;;;25.70;;
13941;SDS011;7043;51.630;7.254;2022-11-21T04:28:54;42.80;;;27.77;;
13941;SDS011;7043;51.630;7.254;2022-11-21T04:31:20;39.53;;;26.00;;
13941;SDS011;7043;51.630;7.254;2022-11-21T04:33:46;40.90;;;26.63;;
13941;SDS011;7043;51.630;7.254;2022-11-21T04:36:12;39.73;;;26.20;;
13941;SDS011;7043;51.630;7.254;2022-11-21T04:38:38;36.37;;;25.70;;
13941;SDS011;7043;51.630;7.254;2022-11-21T04:41:04;39.80;;;25.93;;
13941;SDS011;7043;51.630;7.254;2022-11-21T04:43:30;39.47;;;26.20;;
13941;SDS011;7043;51.630;7.254;2022-11-21T04:45:56;36.20;;;25.20;;
13941;SDS011;7043;51.630;7.254;2022-11-21T04:48:22;39.67;;;26.30;;
13941;SDS011;7043;51.630;7.254;2022-11-21T04:50:48;36.20;;;25.00;;
13941;SDS011;7043;51.630;7.254;2022-11-21T04:53:14;35.70;;;24.27;;
13941;SDS011;7043;51.630;7.254;2022-11-21T04:55:40;36.30;;;25.47;;
13941;SDS011;7043;51.630;7.254;2022-11-21T04:58:06;37.27;;;25.43;;
13941;SDS011;7043;51.630;7.254;2022-11-21T05:00:33;40.20;;;25.87;;
13941;SDS011;7043;51.630;7.254;2022-11-21T05:03:05;38.07;;;25.30;;
13941;SDS011;7043;51.630;7.254;2022-11-21T05:05:31;41.97;;;26.27;;
13941;SDS011;7043;51.630;7.254;2022-11-21T05:07:57;41.23;;;26.87;;
13941;SDS011;7043;51.630;7.254;2022-11-21T05:10:23;46.20;;;28.87;;
13941;SDS011;7043;51.630;7.254;2022-11-21T05:12:59;46.50;;;28.17;;
13941;SDS011;7043;51.630;7.254;2022-11-21T05:15:43;48.27;;;28.63;;
13941;SDS011;7043;51.630;7.254;2022-11-21T05:18:10;45.20;;;27.80;;
13941;SDS011;7043;51.630;7.254;2022-11-21T05:20:36;47.73;;;29.03;;
13941;SDS011;7043;51.630;7.254;2022-11-21T05:23:02;48.27;;;31.13;;
13941;SDS011;7043;51.630;7.254;2022-11-21T05:25:28;47.20;;;29.27;;
13941;SDS011;7043;51.630;7.254;2022-11-21T05:27:54;46.37;;;29.20;;
13941;SDS011;7043;51.630;7.254;2022-11-21T05:30:20;43.27;;;27.70;;
13941;SDS011;7043;51.630;7.254;2022-11-21T05:32:46;47.20;;;29.83;;
13941;SDS011;7043;51.630;7.254;2022-11-21T05:35:12;47.87;;;28.63;;
13941;SDS011;7043;51.630;7.254;2022-11-21T05:37:38;47.90;;;29.00;;
13941;SDS011;7043;51.630;7.254;2022-11-21T05:40:05;54.43;;;31.57;;
13941;SDS011;7043;51.630;7.254;2022-11-21T05:42:31;54.07;;;31.87;;
13941;SDS011;7043;51.630;7.254;2022-11-21T05:45:16;53.80;;;31.13;;
13941;SDS011;7043;51.630;7.254;2022-11-21T05:47:42;54.90;;;31.67;;
13941;SDS011;7043;51.630;7.254;2022-11-21T05:50:08;52.97;;;30.00;;
13941;SDS011;7043;51.630;7.254;2022-11-21T05:52:34;45.40;;;28.27;;
13941;SDS011;7043;51.630;7.254;2022-11-21T05:55:00;47.97;;;29.23;;
13941;SDS011;7043;51.630;7.254;2022-11-21T05:57:26;47.57;;;29.43;;
13941;SDS011;7043;51.630;7.254;2022-11-21T05:59:52;44.37;;;28.50;;
13941;SDS011;7043;51.630;7.254;2022-11-21T06:02:18;45.87;;;27.97;;
13941;SDS011;7043;51.630;7.254;2022-11-21T06:05:03;46.83;;;28.70;;
13941;SDS011;7043;51.630;7.254;2022-11-21T06:07:29;44.10;;;27.67;;
13941;SDS011;7043;51.630;7.254;2022-11-21T06:09:55;42.83;;;26.17;;
13941;SDS011;7043;51.630;7.254;2022-11-21T06:12:21;44.80;;;27.83;;
13941;SDS011;7043;51.630;7.254;2022-11-21T06:14:47;46.27;;;27.20;;
13941;SDS011;7043;51.630;7.254;2022-11-21T06:17:13;45.10;;;27.93;;
13941;SDS011;7043;51.630;7.254;2022-11-21T06:19:39;44.20;;;27.73;;
13941;SDS011;7043;51.630;7.254;2022-11-21T06:22:05;45.03;;;27.80;;
13941;SDS011;7043;51.630;7.254;2022-11-21T06:24:31;45.83;;;28.00;;
13941;SDS011;7043;51.630;7.254;2022-11-21T06:26:57;49.40;;;28.37;;
13941;SDS011;7043;51.630;7.254;2022-11-21T06:29:23;46.47;;;29.17;;
13941;SDS011;7043;51.630;7.254;2022-11-21T06:31:49;49.03;;;28.87;;
13941;SDS011;7043;51.630;7.254;2022-11-21T06:34:15;48.77;;;28.03;;
13941;SDS011;7043;51.630;7.254;2022-11-21T06:36:41;48.87;;;29.07;;
13941;SDS011;7043;51.630;7.254;2022-11-21T06:39:08;53.17;;;29.57;;
13941;SDS011;7043;51.630;7.254;2022-11-21T06:41:34;52.30;;;29.20;;
13941;SDS011;7043;51.630;7.254;2022-11-21T06:44:00;54.50;;;30.00;;
13941;SDS011;7043;51.630;7.254;2022-11-21T06:46:26;61.00;;;31.97;;
13941;SDS011;7043;51.630;7.254;2022-11-21T06:48:52;53.60;;;30.03;;
13941;SDS011;7043;51.630;7.254;2022-11-21T06:51:19;64.07;;;31.10;;
13941;SDS011;7043;51.630;7.254;2022-11-21T06:53:46;65.30;;;31.77;;
13941;SDS011;7043;51.630;7.254;2022-11-21T06:56:13;65.47;;;32.37;;
13941;SDS011;7043;51.630;7.254;2022-11-21T06:58:39;69.87;;;32.93;;
13941;SDS011;7043;51.630;7.254;2022-11-21T07:01:06;68.20;;;32.93;;
13941;SDS011;7043;51.630;7.254;2022-11-21T07:03:33;73.10;;;33.43;;
13941;SDS011;7043;51.630;7.254;2022-11-21T07:05:59;73.90;;;33.40;;
13941;SDS011;7043;51.630;7.254;2022-11-21T07:08:29;79.90;;;34.83;;
13941;SDS011;7043;51.630;7.254;2022-11-21T07:10:56;75.47;;;32.33;;
13941;SDS011;7043;51.630;7.254;2022-11-21T07:13:25;92.63;;;35.07;;
13941;SDS011;7043;51.630;7.254;2022-11-21T07:15:53;91.10;;;34.73;;
13941;SDS011;7043;51.630;7.254;2022-11-21T07:18:19;74.50;;;33.30;;
13941;SDS011;7043;51.630;7.254;2022-11-21T07:20:46;80.20;;;34.63;;
13941;SDS011;7043;51.630;7.254;2022-11-21T07:23:12;85.77;;;35.33;;
13941;SDS011;7043;51.630;7.254;2022-11-21T07:25:38;83.43;;;34.83;;
13941;SDS011;7043;51.630;7.254;2022-11-21T07:28:05;83.83;;;36.70;;
13941;SDS011;7043;51.630;7.254;2022-11-21T07:30:32;84.63;;;36.00;;
13941;SDS011;7043;51.630;7.254;2022-11-21T07:32:59;88.17;;;36.33;;
13941;SDS011;7043;51.630;7.254;2022-11-21T07:35:25;78.93;;;35.87;;
13941;SDS011;7043;51.630;7.254;2022-11-21T07:37:51;85.70;;;35.97;;
13941;SDS011;7043;51.630;7.254;2022-11-21T07:40:17;95.43;;;38.37;;
13941;SDS011;7043;51.630;7.254;2022-11-21T07:42:44;74.93;;;34.43;;
13941;SDS011;7043;51.630;7.254;2022-11-21T07:45:10;78.37;;;36.17;;
13941;SDS011;7043;51.630;7.254;2022-11-21T07:47:36;77.30;;;34.70;;
13941;SDS011;7043;51.630;7.254;2022-11-21T07:50:03;83.30;;;36.77;;
13941;SDS011;7043;51.630;7.254;2022-11-21T07:52:29;74.70;;;35.20;;
13941;SDS011;7043;51.630;7.254;2022-11-21T07:54:57;87.20;;;36.63;;
13941;SDS011;7043;51.630;7.254;2022-11-21T07:57:26;85.47;;;37.63;;
13941;SDS011;7043;51.630;7.254;2022-11-21T07:59:52;90.13;;;39.67;;
13941;SDS011;7043;51.630;7.254;2022-11-21T08:02:18;83.57;;;37.43;;
13941;SDS011;7043;51.630;7.254;2022-11-21T08:04:44;95.43;;;42.97;;
13941;SDS011;7043;51.630;7.254;2022-11-21T08:07:10;94.07;;;42.10;;
13941;SDS011;7043;51.630;7.254;2022-11-21T08:09:36;99.50;;;44.20;;
13941;SDS011;7043;51.630;7.254;2022-11-21T08:12:02;108.10;;;43.13;;
13941;SDS011;7043;51.630;7.254;2022-11-21T08:14:28;91.30;;;41.03;;
13941;SDS011;7043;51.630;7.254;2022-11-21T08:16:54;98.03;;;41.47;;
13941;SDS011;7043;51.630;7.254;2022-11-21T08:19:20;95.53;;;43.10;;
13941;SDS011;7043;51.630;7.254;2022-11-21T08:21:46;92.77;;;42.87;;
13941;SDS011;7043;51.630;7.254;2022-11-21T08:24:12;94.17;;;42.37;;
13941;SDS011;7043;51.630;7.254;2022-11-21T08:26:41;93.57;;;42.27;;
13941;SDS011;7043;51.630;7.254;2022-11-21T08:29:08;94.83;;;40.60;;
13941;SDS011;7043;51.630;7.254;2022-11-21T08:31:35;94.27;;;44.43;;
13941;SDS011;7043;51.630;7.254;2022-11-21T08:34:01;100.03;;;43.83;;
13941;SDS011;7043;51.630;7.254;2022-11-21T08:36:27;121.97;;;65.67;;
13941;SDS011;7043;51.630;7.254;2022-11-21T08:38:53;102.90;;;47.87;;
13941;SDS011;7043;51.630;7.254;2022-11-21T08:41:18;102.33;;;46.33;;
13941;SDS011;7043;51.630;7.254;2022-11-21T08:44:04;99.00;;;44.00;;
13941;SDS011;7043;51.630;7.254;2022-11-21T08:46:30;100.30;;;48.30;;
13941;SDS011;7043;51.630;7.254;2022-11-21T08:48:57;93.67;;;47.27;;
13941;SDS011;7043;51.630;7.254;2022-11-21T08:51:24;97.00;;;49.70;;
13941;SDS011;7043;51.630;7.254;2022-11-21T08:53:50;95.50;;;46.73;;
13941;SDS011;7043;51.630;7.254;2022-11-21T08:56:15;87.10;;;43.20;;
13941;SDS011;7043;51.630;7.254;2022-11-21T08:58:41;94.30;;;45.27;;
13941;SDS011;7043;51.630;7.254;2022-11-21T09:01:07;123.47;;;60.60;;
13941;SDS011;7043;51.630;7.254;2022-11-21T09:03:33;121.50;;;53.90;;
13941;SDS011;7043;51.630;7.254;2022-11-21T09:05:59;113.87;;;57.00;;
13941;SDS011;7043;51.630;7.254;2022-11-21T09:08:25;124.73;;;59.27;;
13941;SDS011;7043;51.630;7.254;2022-11-21T09:10:52;114.50;;;51.03;;
13941;SDS011;7043;51.630;7.254;2022-11-21T09:13:17;102.60;;;50.57;;
13941;SDS011;7043;51.630;7.254;2022-11-21T09:15:44;93.30;;;44.37;;
13941;SDS011;7043;51.630;7.254;2022-11-21T09:18:28;99.70;;;46.07;;
13941;SDS011;7043;51.630;7.254;2022-11-21T09:20:54;95.13;;;45.33;;
13941;SDS011;7043;51.630;7.254;2022-11-21T09:23:20;88.80;;;43.10;;
13941;SDS011;7043;51.630;7.254;2022-11-21T09:25:46;83.30;;;43.77;;
13941;SDS011;7043;51.630;7.254;2022-11-21T09:28:12;95.63;;;45.20;;
13941;SDS011;7043;51.630;7.254;2022-11-21T09:30:39;88.93;;;42.83;;
13941;SDS011;7043;51.630;7.254;2022-11-21T09:33:06;88.97;;;41.90;;
13941;SDS011;7043;51.630;7.254;2022-11-21T09:35:32;86.53;;;42.17;;
13941;SDS011;7043;51.630;7.254;2022-11-21T09:37:59;84.90;;;41.13;;
13941;SDS011;7043;51.630;7.254;2022-11-21T09:40:25;80.53;;;39.80;;
13941;SDS011;7043;51.630;7.254;2022-11-21T09:45:36;89.63;;;41.00;;
13941;SDS011;7043;51.630;7.254;2022-11-21T09:48:09;90.83;;;44.13;;
13941;SDS011;7043;51.630;7.254;2022-11-21T09:50:55;86.77;;;44.80;;
13941;SDS011;7043;51.630;7.254;2022-11-21T09:53:23;216.63;;;121.93;;
13941;SDS011;7043;51.630;7.254;2022-11-21T09:55:52;158.23;;;105.73;;
13941;SDS011;7043;51.630;7.254;2022-11-21T10:00:50;100.27;;;47.60;;
13941;SDS011;7043;51.630;7.254;2022-11-21T10:03:16;143.10;;;89.10;;
13941;SDS011;7043;51.630;7.254;2022-11-21T10:05:47;108.43;;;51.40;;
13941;SDS011;7043;51.630;7.254;2022-11-21T10:10:52;109.20;;;50.80;;
13941;SDS011;7043;51.630;7.254;2022-11-21T10:28:58;120.43;;;62.00;;
13941;SDS011;7043;51.630;7.254;2022-11-21T10:31:25;123.20;;;77.70;;
13941;SDS011;7043;51.630;7.254;2022-11-21T10:33:55;152.57;;;95.57;;
13941;SDS011;7043;51.630;7.254;2022-11-21T10:38:55;107.57;;;59.10;;
13941;SDS011;7043;51.630;7.254;2022-11-21T10:41:28;122.93;;;59.70;;
13941;SDS011;7043;51.630;7.254;2022-11-21T10:44:12;116.50;;;71.30;;
13941;SDS011;7043;51.630;7.254;2022-11-21T10:47:01;103.47;;;48.87;;
13941;SDS011;7043;51.630;7.254;2022-11-21T10:49:31;115.23;;;64.03;;
13941;SDS011;7043;51.630;7.254;2022-11-21T10:55:10;119.57;;;58.57;;
13941;SDS011;7043;51.630;7.254;2022-11-21T10:57:30;167.73;;;94.77;;
13941;SDS011;7043;51.630;7.254;2022-11-21T11:00:00;112.80;;;61.03;;
13941;SDS011;7043;51.630;7.254;2022-11-21T11:02:26;126.53;;;58.27;;
13941;SDS011;7043;51.630;7.254;2022-11-21T11:07:37;133.47;;;69.07;;
13941;SDS011;7043;51.630;7.254;2022-11-21T11:10:14;130.93;;;57.77;;
13941;SDS011;7043;51.630;7.254;2022-11-21T11:12:40;117.10;;;57.83;;
13941;SDS011;7043;51.630;7.254;2022-11-21T11:15:25;150.63;;;59.60;;
13941;SDS011;7043;51.630;7.254;2022-11-21T11:18:34;142.30;;;67.57;;
13941;SDS011;7043;51.630;7.254;2022-11-21T11:20:42;147.70;;;65.90;;
13941;SDS011;7043;51.630;7.254;2022-11-21T11:23:27;142.37;;;56.50;;
13941;SDS011;7043;51.630;7.254;2022-11-21T11:25:55;136.40;;;57.40;;
13941;SDS011;7043;51.630;7.254;2022-11-21T11:28:21;138.77;;;58.40;;
13941;SDS011;7043;51.630;7.254;2022-11-21T11:30:48;126.37;;;57.50;;
13941;SDS011;7043;51.630;7.254;2022-11-21T11:33:28;174.90;;;81.53;;
13941;SDS011;7043;51.630;7.254;2022-11-21T11:35:55;140.90;;;56.37;;
13941;SDS011;7043;51.630;7.254;2022-11-21T11:38:24;127.90;;;51.27;;
13941;SDS011;7043;51.630;7.254;2022-11-21T11:40:51;133.60;;;60.83;;
13941;SDS011;7043;51.630;7.254;2022-11-21T11:43:34;118.97;;;51.57;;
13941;SDS011;7043;51.630;7.254;2022-11-21T11:49:20;131.30;;;53.70;;
13941;SDS011;7043;51.630;7.254;2022-11-21T11:51:53;118.57;;;50.97;;
13941;SDS011;7043;51.630;7.254;2022-11-21T11:54:25;110.03;;;48.60;;
13941;SDS011;7043;51.630;7.254;2022-11-21T11:56:52;121.03;;;51.17;;
13941;SDS011;7043;51.630;7.254;2022-11-21T11:59:27;117.57;;;53.87;;
13941;SDS011;7043;51.630;7.254;2022-11-21T12:02:02;122.53;;;59.70;;
13941;SDS011;7043;51.630;7.254;2022-11-21T12:04:35;112.97;;;52.13;;
13941;SDS011;7043;51.630;7.254;2022-11-21T12:07:11;108.97;;;49.93;;
13941;SDS011;7043;51.630;7.254;2022-11-21T12:12:32;125.77;;;61.17;;
13941;SDS011;7043;51.630;7.254;2022-11-21T12:18:07;113.57;;;52.10;;
13941;SDS011;7043;51.630;7.254;2022-11-21T12:20:35;99.20;;;54.17;;
13941;SDS011;7043;51.630;7.254;2022-11-21T12:23:04;98.57;;;47.33;;
13941;SDS011;7043;51.630;7.254;2022-11-21T12:25:33;102.27;;;47.27;;
13941;SDS011;7043;51.630;7.254;2022-11-21T12:28:01;99.07;;;50.77;;
13941;SDS011;7043;51.630;7.254;2022-11-21T12:33:14;96.80;;;43.70;;
13941;SDS011;7043;51.630;7.254;2022-11-21T12:38:35;83.13;;;41.87;;
13941;SDS011;7043;51.630;7.254;2022-11-21T12:49:12;73.20;;;40.40;;
13941;SDS011;7043;51.630;7.254;2022-11-21T12:54:51;72.00;;;39.70;;
13941;SDS011;7043;51.630;7.254;2022-11-21T12:57:20;61.50;;;36.70;;
13941;SDS011;7043;51.630;7.254;2022-11-21T13:02:43;64.37;;;35.67;;
13941;SDS011;7043;51.630;7.254;2022-11-21T13:05:16;63.77;;;39.80;;
13941;SDS011;7043;51.630;7.254;2022-11-21T13:07:43;74.37;;;46.97;;
13941;SDS011;7043;51.630;7.254;2022-11-21T13:10:13;80.37;;;50.80;;
13941;SDS011;7043;51.630;7.254;2022-11-21T13:15:15;69.13;;;37.83;;
13941;SDS011;7043;51.630;7.254;2022-11-21T13:17:51;71.37;;;42.47;;
13941;SDS011;7043;51.630;7.254;2022-11-21T13:20:20;74.97;;;47.23;;
13941;SDS011;7043;51.630;7.254;2022-11-21T13:30:45;113.80;;;84.13;;
13941;SDS011;7043;51.630;7.254;2022-11-21T13:33:43;87.97;;;52.23;;
13941;SDS011;7043;51.630;7.254;2022-11-21T13:35:57;80.63;;;48.60;;
13941;SDS011;7043;51.630;7.254;2022-11-21T13:38:23;80.23;;;46.03;;
13941;SDS011;7043;51.630;7.254;2022-11-21T13:40:49;83.13;;;48.87;;
13941;SDS011;7043;51.630;7.254;2022-11-21T13:43:34;80.50;;;49.73;;
13941;SDS011;7043;51.630;7.254;2022-11-21T13:46:02;71.80;;;44.03;;
13941;SDS011;7043;51.630;7.254;2022-11-21T14:07:42;73.40;;;43.83;;
13941;SDS011;7043;51.630;7.254;2022-11-21T14:09:47;76.07;;;43.50;;
13941;SDS011;7043;51.630;7.254;2022-11-21T14:14:53;75.57;;;47.30;;
13941;SDS011;7043;51.630;7.254;2022-11-21T14:17:47;128.23;;;88.07;;
13941;SDS011;7043;51.630;7.254;2022-11-21T14:25:32;87.43;;;57.07;;
13941;SDS011;7043;51.630;7.254;2022-11-21T14:27:59;83.60;;;52.07;;
13941;SDS011;7043;51.630;7.254;2022-11-21T14:30:27;90.40;;;59.43;;
13941;SDS011;7043;51.630;7.254;2022-11-21T14:32:55;77.03;;;53.77;;
13941;SDS011;7043;51.630;7.254;2022-11-21T14:35:22;82.00;;;50.47;;
13941;SDS011;7043;51.630;7.254;2022-11-21T14:37:49;84.10;;;49.97;;
13941;SDS011;7043;51.630;7.254;2022-11-21T14:40:19;87.20;;;55.97;;
13941;SDS011;7043;51.630;7.254;2022-11-21T14:42:45;93.30;;;59.20;;
13941;SDS011;7043;51.630;7.254;2022-11-21T14:45:19;96.40;;;59.10;;
13941;SDS011;7043;51.630;7.254;2022-11-21T14:47:46;81.23;;;47.90;;
13941;SDS011;7043;51.630;7.254;2022-11-21T14:50:29;90.80;;;55.23;;
13941;SDS011;7043;51.630;7.254;2022-11-21T14:52:55;82.67;;;48.03;;
13941;SDS011;7043;51.630;7.254;2022-11-21T14:55:23;93.37;;;57.77;;
13941;SDS011;7043;51.630;7.254;2022-11-21T14:57:49;105.53;;;71.73;;
13941;SDS011;7043;51.630;7.254;2022-11-21T15:00:18;99.43;;;65.50;;
13941;SDS011;7043;51.630;7.254;2022-11-21T15:02:44;99.13;;;59.70;;
13941;SDS011;7043;51.630;7.254;2022-11-21T15:05:13;110.50;;;73.40;;
13941;SDS011;7043;51.630;7.254;2022-11-21T15:07:40;100.33;;;59.13;;
13941;SDS011;7043;51.630;7.254;2022-11-21T15:10:13;114.90;;;67.20;;
13941;SDS011;7043;51.630;7.254;2022-11-21T15:17:37;120.20;;;80.83;;
13941;SDS011;7043;51.630;7.254;2022-11-21T15:22:39;148.70;;;95.20;;
13941;SDS011;7043;51.630;7.254;2022-11-21T15:25:13;91.13;;;52.57;;
13941;SDS011;7043;51.630;7.254;2022-11-21T15:27:40;87.93;;;54.47;;
13941;SDS011;7043;51.630;7.254;2022-11-21T15:32:32;125.03;;;84.57;;
13941;SDS011;7043;51.630;7.254;2022-11-21T15:34:58;97.90;;;62.97;;
13941;SDS011;7043;51.630;7.254;2022-11-21T15:37:25;73.57;;;49.13;;
13941;SDS011;7043;51.630;7.254;2022-11-21T15:39:51;58.97;;;39.93;;
13941;SDS011;7043;51.630;7.254;2022-11-21T15:45:00;46.93;;;33.63;;
13941;SDS011;7043;51.630;7.254;2022-11-21T15:47:26;103.87;;;83.60;;
13941;SDS011;7043;51.630;7.254;2022-11-21T15:49:52;125.90;;;108.37;;
13941;SDS011;7043;51.630;7.254;2022-11-21T15:52:18;120.57;;;92.40;;
13941;SDS011;7043;51.630;7.254;2022-11-21T15:54:44;63.90;;;48.87;;
13941;SDS011;7043;51.630;7.254;2022-11-21T15:57:10;112.40;;;84.27;;
13941;SDS011;7043;51.630;7.254;2022-11-21T15:59:37;101.90;;;77.33;;
13941;SDS011;7043;51.630;7.254;2022-11-21T16:02:03;77.30;;;61.97;;
13941;SDS011;7043;51.630;7.254;2022-11-21T16:04:29;75.83;;;59.47;;
13941;SDS011;7043;51.630;7.254;2022-11-21T16:06:55;31.87;;;26.80;;
13941;SDS011;7043;51.630;7.254;2022-11-21T16:09:21;119.30;;;96.97;;
13941;SDS011;7043;51.630;7.254;2022-11-21T16:11:47;44.37;;;34.70;;
13941;SDS011;7043;51.630;7.254;2022-11-21T16:14:14;29.00;;;24.53;;
13941;SDS011;7043;51.630;7.254;2022-11-21T16:16:42;34.03;;;27.57;;
13941;SDS011;7043;51.630;7.254;2022-11-21T16:19:08;19.40;;;16.47;;
13941;SDS011;7043;51.630;7.254;2022-11-21T16:21:35;24.47;;;19.13;;
13941;SDS011;7043;51.630;7.254;2022-11-21T16:24:01;22.03;;;17.93;;
13941;SDS011;7043;51.630;7.254;2022-11-21T16:26:27;19.33;;;15.60;;
13941;SDS011;7043;51.630;7.254;2022-11-21T16:28:53;26.90;;;24.03;;